Time;durP1;ratioP1;P1;durP2;ratioP2;P2;SDS_P1;SDS_P2;PMS_P1;PMS_P2;Temp;Humidity;BMP_temperature;BMP_pressure;BME280_temperature;BME280_humidity;BME280_pressure;Samples;Min_cycle;Max_cycle;Signal;HPM_P1;HPM_P2
2022/02/07 00:00:44;;;;;;;4.63;0.70;;;5.60;99.30;;;;;;5029849;28;20029;-76
2022/02/07 00:03:17;;;;;;;6.78;1.05;;;5.50;99.20;;;;;;5031182;28;20045;-77
2022/02/07 00:05:43;;;;;;;5.43;1.85;;;5.40;99.50;;;;;;5031109;28;20026;-77
2022/02/07 00:08:11;;;;;;;2.60;0.68;;;5.40;99.40;;;;;;5029812;28;20099;-76
2022/02/07 00:10:39;;;;;;;5.85;0.82;;;5.50;99.40;;;;;;5030873;28;20030;-76
2022/02/07 00:13:05;;;;;;;8.05;1.20;;;5.40;99.50;;;;;;5030858;28;20070;-76
2022/02/07 00:15:31;;;;;;;12.05;1.33;;;5.50;99.80;;;;;;5030777;28;20053;-77
2022/02/07 00:17:57;;;;;;;5.93;1.10;;;5.50;99.70;;;;;;5030247;28;20486;-76
2022/02/07 00:20:24;;;;;;;6.50;1.17;;;5.50;99.70;;;;;;5030861;28;20033;-76
2022/02/07 00:22:51;;;;;;;15.70;1.50;;;5.50;99.70;;;;;;5029518;28;20052;-77
2022/02/07 00:25:18;;;;;;;4.80;1.00;;;5.50;99.50;;;;;;5030561;28;20095;-77
2022/02/07 00:27:44;;;;;;;6.10;1.05;;;5.40;99.30;;;;;;5030666;28;20038;-77
2022/02/07 00:30:12;;;;;;;7.97;0.85;;;5.40;99.20;;;;;;5031054;28;20066;-77
2022/02/07 00:32:38;;;;;;;;;;;5.40;99.30;;;;;;5030877;28;20030;-77
2022/02/07 00:35:07;;;;;;;9.77;0.90;;;5.50;99.00;;;;;;5029714;28;19917;-78
2022/02/07 00:37:33;;;;;;;3.95;0.82;;;5.30;98.90;;;;;;5030679;28;20041;-78
2022/02/07 00:40:57;;;;;;;8.65;0.70;;;5.30;99.00;;;;;;5030638;28;20490;-78
2022/02/07 00:48:07;;;;;;;9.45;0.95;;;5.40;98.90;;;;;;5033881;28;20474;-77
2022/02/07 00:50:35;;;;;;;5.50;0.75;;;5.50;98.80;;;;;;5033007;28;20064;-77
2022/02/07 00:53:00;;;;;;;5.97;0.90;;;5.40;99.20;;;;;;5034072;28;20049;-77
2022/02/07 00:55:26;;;;;;;5.32;1.20;;;5.40;99.30;;;;;;5033920;28;20056;-77
2022/02/07 00:57:52;;;;;;;1.65;0.50;;;5.20;99.40;;;;;;5033886;28;20025;-76
2022/02/07 01:00:18;;;;;;;7.93;0.90;;;5.30;99.30;;;;;;5033307;28;20036;-77
2022/02/07 01:02:44;;;;;;;3.80;0.85;;;5.20;99.10;;;;;;5032928;28;20041;-78
2022/02/07 01:05:10;;;;;;;4.53;0.75;;;5.10;99.20;;;;;;5033894;28;20041;-77
2022/02/07 01:07:36;;;;;;;10.05;0.80;;;5.00;99.20;;;;;;5033864;28;20064;-78
2022/02/07 01:10:03;;;;;;;4.10;0.70;;;5.00;99.10;;;;;;5033784;28;20034;-78
2022/02/07 01:15:29;;;;;;;5.72;0.93;;;4.90;99.10;;;;;;5034035;28;20065;-77
2022/02/07 01:50:51;;;;;;;7.00;0.90;;;4.50;99.90;;;;;;5042997;28;20087;-77
2022/02/07 01:55:59;;;;;;;6.38;0.82;;;4.50;99.90;;;;;;5033393;28;20026;-78
2022/02/07 01:58:25;;;;;;;7.00;1.33;;;4.40;99.90;;;;;;5031732;28;20446;-77
2022/02/07 02:00:51;;;;;;;8.52;1.73;;;4.50;99.90;;;;;;5032963;28;20030;-77
2022/02/07 02:03:17;;;;;;;6.40;0.85;;;4.40;99.90;;;;;;5033222;28;20037;-78
2022/02/07 02:05:44;;;;;;;6.53;1.30;;;4.40;99.90;;;;;;5032138;28;20056;-77
2022/02/07 02:08:17;;;;;;;5.85;1.13;;;4.40;99.90;;;;;;5033127;28;20029;-78
2022/02/07 02:10:45;;;;;;;7.80;1.00;;;4.50;99.90;;;;;;5032717;28;20025;-78
2022/02/07 02:13:40;;;;;;;;;;;4.60;99.90;;;;;;5033124;28;20022;-77
2022/02/07 02:16:34;;;;;;;8.57;0.80;;;4.50;99.90;;;;;;5032821;28;19909;-77
2022/02/07 02:19:35;;;;;;;8.82;0.80;;;4.50;99.90;;;;;;5031842;28;20699;-77
2022/02/07 02:36:29;;;;;;;8.50;0.98;;;4.60;99.90;;;;;;5022723;28;20042;-79
2022/02/07 02:46:55;;;;;;;7.78;1.35;;;4.90;99.90;;;;;;5012668;28;20411;-76
2022/02/07 02:49:21;;;;;;;5.63;1.00;;;4.90;99.90;;;;;;5011258;28;20029;-77
2022/02/07 02:51:47;;;;;;;8.73;0.90;;;4.90;99.90;;;;;;5011426;28;20036;-77
2022/02/07 02:54:13;;;;;;;9.32;1.05;;;4.90;99.90;;;;;;5012185;28;20112;-78
2022/02/07 02:56:40;;;;;;;9.98;1.23;;;5.00;99.90;;;;;;5012861;28;20418;-78
2022/02/07 02:59:05;;;;;;;5.93;1.13;;;4.90;99.90;;;;;;5012323;28;20113;-78
2022/02/07 03:01:32;;;;;;;10.98;0.90;;;4.90;99.90;;;;;;5012455;28;20129;-78
2022/02/07 03:03:57;;;;;;;6.82;1.17;;;4.90;99.90;;;;;;5012184;28;20030;-78
2022/02/07 03:06:23;;;;;;;11.60;1.20;;;4.90;99.90;;;;;;5012658;28;20037;-77
2022/02/07 03:08:49;;;;;;;4.25;0.80;;;4.80;99.90;;;;;;5010969;28;20037;-77
2022/02/07 03:11:21;;;;;;;4.68;0.90;;;4.90;99.90;;;;;;5011864;28;20057;-77
2022/02/07 03:13:50;;;;;;;7.45;0.98;;;5.00;99.90;;;;;;5011310;28;20419;-78
2022/02/07 03:16:39;;;;;;;7.97;1.08;;;4.90;99.90;;;;;;5012223;28;20022;-78
2022/02/07 03:19:06;;;;;;;3.13;0.63;;;4.90;99.90;;;;;;5012442;28;20030;-77
2022/02/07 03:21:32;;;;;;;7.70;1.08;;;4.90;99.90;;;;;;5010816;28;20133;-77
2022/02/07 03:23:58;;;;;;;9.38;1.08;;;5.00;99.90;;;;;;5012285;28;20420;-77
2022/02/07 03:26:24;;;;;;;3.40;1.23;;;5.00;99.90;;;;;;5011992;28;20034;-78
2022/02/07 03:28:50;;;;;;;11.18;0.77;;;5.10;99.90;;;;;;5012030;28;20357;-77
2022/02/07 03:31:17;;;;;;;7.35;1.02;;;5.00;99.90;;;;;;5010867;28;20368;-77
2022/02/07 03:33:43;;;;;;;3.20;0.88;;;5.10;99.90;;;;;;5011617;28;20087;-78
2022/02/07 03:36:09;;;;;;;4.22;1.05;;;4.90;99.90;;;;;;5012722;28;20026;-77
2022/02/07 03:38:35;;;;;;;6.88;1.10;;;5.00;99.90;;;;;;5011834;28;20103;-77
2022/02/07 03:41:02;;;;;;;9.10;0.90;;;4.90;99.90;;;;;;5010955;28;20037;-76
2022/02/07 03:43:28;;;;;;;7.70;1.08;;;4.90;99.90;;;;;;5011106;28;20060;-78
2022/02/07 03:45:53;;;;;;;5.53;0.70;;;4.90;99.90;;;;;;5012442;28;20034;-77
2022/02/07 03:48:19;;;;;;;11.35;1.00;;;4.90;99.90;;;;;;5013065;28;20021;-78
2022/02/07 03:50:44;;;;;;;5.68;0.80;;;5.00;99.90;;;;;;5012857;28;20079;-77
2022/02/07 03:53:10;;;;;;;9.13;1.52;;;4.90;99.90;;;;;;5012857;28;20463;-76
2022/02/07 03:55:38;;;;;;;10.77;1.27;;;4.80;99.90;;;;;;5013679;28;20041;-78
2022/02/07 03:58:03;;;;;;;4.45;0.60;;;4.90;99.90;;;;;;5012767;28;20538;-78
2022/02/07 04:00:29;;;;;;;10.70;1.08;;;4.90;99.90;;;;;;5012695;28;20030;-77
2022/02/07 04:02:57;;;;;;;7.35;1.08;;;4.90;99.90;;;;;;5011432;28;20549;-78
2022/02/07 04:08:02;;;;;;;5.00;0.90;;;5.00;99.90;;;;;;5011867;28;20033;-77
2022/02/07 04:10:33;;;;;;;15.98;1.40;;;5.00;99.90;;;;;;5012963;28;20026;-77
2022/02/07 04:13:02;;;;;;;12.80;1.42;;;4.90;99.90;;;;;;5013498;28;20034;-78
2022/02/07 04:15:28;;;;;;;5.70;0.88;;;4.90;99.90;;;;;;5011458;28;20046;-78
2022/02/07 04:17:58;;;;;;;13.23;1.42;;;5.00;99.90;;;;;;5011024;28;20044;-78
2022/02/07 04:20:24;;;;;;;7.55;1.00;;;4.90;99.90;;;;;;5013517;28;20052;-77
2022/02/07 04:22:50;;;;;;;9.65;1.48;;;5.00;99.90;;;;;;5016683;28;20026;-81
2022/02/07 04:25:16;;;;;;;10.43;1.15;;;5.00;99.90;;;;;;5017475;28;20030;-76
2022/02/07 04:27:41;;;;;;;9.65;1.35;;;5.00;99.90;;;;;;5016228;28;20463;-76
2022/02/07 04:30:09;;;;;;;12.77;1.13;;;4.90;99.90;;;;;;5016816;28;20053;-77
2022/02/07 04:32:35;;;;;;;5.68;1.35;;;4.90;99.90;;;;;;5016701;28;20108;-78
2022/02/07 04:35:01;;;;;;;14.75;1.58;;;4.90;99.90;;;;;;5015956;28;20448;-77
2022/02/07 04:37:26;;;;;;;13.85;1.60;;;4.90;99.90;;;;;;5018592;28;20060;-78
2022/02/07 04:39:53;;;;;;;15.95;2.30;;;4.90;99.90;;;;;;5017396;28;20097;-80
2022/02/07 04:42:22;;;;;;;10.73;1.48;;;4.90;99.90;;;;;;5017406;28;20025;-79
2022/02/07 04:45:14;;;;;;;11.63;1.70;;;4.90;99.90;;;;;;5016300;28;20034;-77
2022/02/07 04:48:01;;;;;;;12.25;1.17;;;5.00;99.90;;;;;;5015354;28;20103;-78
2022/02/07 04:50:41;;;;;;;9.43;1.70;;;5.00;99.90;;;;;;5015034;28;20060;-79
2022/02/07 04:55:43;;;;;;;13.50;1.50;;;5.10;99.90;;;;;;5014963;28;20038;-78
2022/02/07 05:03:18;;;;;;;8.07;1.67;;;5.20;99.90;;;;;;5015339;28;20022;-77
2022/02/07 05:16:16;;;;;;;20.50;2.13;;;5.40;99.90;;;;;;5014715;28;20125;-77
2022/02/07 05:18:41;;;;;;;16.13;2.28;;;5.40;99.90;;;;;;5014109;28;20101;-78
2022/02/07 05:21:07;;;;;;;11.25;1.80;;;5.30;99.90;;;;;;5015669;28;20168;-77
2022/02/07 05:23:33;;;;;;;16.52;1.98;;;5.40;99.90;;;;;;5014540;28;20044;-77
2022/02/07 05:26:02;;;;;;;19.48;2.10;;;5.40;99.90;;;;;;5014703;28;20026;-77
2022/02/07 05:28:27;;;;;;;22.40;2.72;;;5.50;99.90;;;;;;5014665;28;20404;-77
2022/02/07 05:30:53;;;;;;;21.52;2.80;;;5.60;99.90;;;;;;5014533;28;20052;-77
2022/02/07 05:33:18;;;;;;;14.57;2.95;;;5.50;99.90;;;;;;5014095;28;20341;-76
2022/02/07 05:35:44;;;;;;;9.57;2.13;;;5.50;99.90;;;;;;5013338;28;20036;-76
2022/02/07 05:38:10;;;;;;;21.27;3.13;;;5.50;99.90;;;;;;5013374;28;20064;-76
2022/02/07 05:43:02;;;;;;;16.50;2.97;;;5.50;99.90;;;;;;5014215;28;20066;-75
2022/02/07 05:45:28;;;;;;;18.70;2.13;;;5.60;99.90;;;;;;5013294;28;20113;-76
2022/02/07 05:47:54;;;;;;;18.92;2.35;;;5.60;99.90;;;;;;5012592;28;20125;-76
2022/02/07 05:50:20;;;;;;;18.02;2.20;;;5.60;99.90;;;;;;5013701;28;20116;-75
2022/02/07 05:52:46;;;;;;;11.82;1.77;;;5.50;99.90;;;;;;5013729;28;20440;-76
2022/02/07 05:55:11;;;;;;;17.63;2.63;;;5.50;99.90;;;;;;5012446;28;20075;-76
2022/02/07 05:57:37;;;;;;;10.75;2.05;;;5.50;99.90;;;;;;5012711;28;20381;-77
2022/02/07 06:00:05;;;;;;;16.10;2.83;;;5.50;99.90;;;;;;5013917;28;20136;-77
2022/02/07 06:02:30;;;;;;;14.00;1.73;;;5.50;99.90;;;;;;5013366;28;20397;-77
2022/02/07 06:04:56;;;;;;;10.85;1.42;;;5.60;99.90;;;;;;5012200;28;20070;-77
2022/02/07 06:07:21;;;;;;;10.57;1.38;;;5.60;99.90;;;;;;5013530;28;20176;-76
2022/02/07 06:09:47;;;;;;;13.82;1.80;;;5.60;99.90;;;;;;5013474;28;20037;-78
2022/02/07 06:12:13;;;;;;;19.50;2.22;;;5.60;99.90;;;;;;5013717;28;20360;-77
2022/02/07 06:14:38;;;;;;;14.65;2.55;;;5.60;99.90;;;;;;5013441;28;20068;-77
2022/02/07 06:17:04;;;;;;;12.85;2.08;;;5.60;99.90;;;;;;5013127;28;20042;-77
2022/02/07 06:19:30;;;;;;;17.00;2.40;;;5.60;99.90;;;;;;5011940;28;20030;-78
2022/02/07 06:21:56;;;;;;;8.55;1.52;;;5.60;99.90;;;;;;5012867;28;20116;-76
2022/02/07 06:24:22;;;;;;;10.07;1.95;;;5.60;99.90;;;;;;5013502;28;20351;-76
2022/02/07 06:26:48;;;;;;;11.75;2.15;;;5.70;99.90;;;;;;5011939;28;20026;-75
2022/02/07 06:29:13;;;;;;;10.63;1.85;;;5.60;99.90;;;;;;5012938;28;20044;-77
2022/02/07 06:31:39;;;;;;;16.88;2.53;;;5.80;99.90;;;;;;5012413;28;20041;-79
2022/02/07 06:34:05;;;;;;;18.42;2.15;;;5.80;99.90;;;;;;5013267;28;20038;-79
2022/02/07 06:36:30;;;;;;;17.88;2.50;;;5.70;99.90;;;;;;5012233;28;20026;-77
2022/02/07 06:38:56;;;;;;;16.38;2.47;;;5.80;99.90;;;;;;5013153;28;20448;-78
2022/02/07 06:41:21;;;;;;;14.88;2.00;;;5.90;99.90;;;;;;5012772;28;20599;-77
2022/02/07 06:43:47;;;;;;;16.92;2.67;;;5.90;99.90;;;;;;5011869;28;20049;-77
2022/02/07 06:46:13;;;;;;;18.05;2.65;;;5.90;99.90;;;;;;5012590;28;20022;-77
2022/02/07 06:48:38;;;;;;;16.65;2.03;;;6.00;99.90;;;;;;5012856;28;20034;-77
2022/02/07 06:51:05;;;;;;;18.52;2.40;;;6.10;99.90;;;;;;5012780;28;20117;-77
2022/02/07 06:53:31;;;;;;;17.43;2.20;;;6.10;99.90;;;;;;5012662;28;20100;-79
2022/02/07 06:55:57;;;;;;;12.27;1.92;;;6.20;99.90;;;;;;5012522;28;20535;-80
2022/02/07 06:58:22;;;;;;;24.40;2.35;;;6.10;99.90;;;;;;5012436;28;20132;-80
2022/02/07 07:00:48;;;;;;;10.68;1.83;;;6.10;99.90;;;;;;5011200;28;20079;-77
2022/02/07 07:03:18;;;;;;;11.45;1.63;;;6.00;99.90;;;;;;5012768;28;20112;-79
2022/02/07 07:05:44;;;;;;;16.23;2.38;;;6.10;99.90;;;;;;5011340;28;20120;-77
2022/02/07 07:08:10;;;;;;;16.85;2.70;;;6.00;99.90;;;;;;5012163;28;20041;-79
2022/02/07 07:10:35;;;;;;;9.10;2.03;;;6.10;99.90;;;;;;5012423;28;20029;-78
2022/02/07 07:13:08;;;;;;;16.77;2.75;;;6.10;99.90;;;;;;5013295;28;20030;-77
2022/02/07 07:15:43;;;;;;;14.13;2.10;;;6.10;99.90;;;;;;5015188;28;20029;-80
2022/02/07 07:18:09;;;;;;;15.60;2.00;;;6.10;99.90;;;;;;5015050;28;20108;-79
2022/02/07 07:20:36;;;;;;;12.10;1.67;;;6.30;99.90;;;;;;5015354;28;20045;-81
2022/02/07 07:23:05;;;;;;;11.55;1.42;;;6.40;99.90;;;;;;5013583;28;20475;-80
2022/02/07 07:25:31;;;;;;;14.52;2.00;;;6.30;99.90;;;;;;5013410;28;20046;-79
2022/02/07 07:28:05;;;;;;;15.85;2.53;;;6.40;99.90;;;;;;5013497;28;20044;-79
2022/02/07 07:30:37;;;;;;;16.75;2.40;;;6.50;99.90;;;;;;5002560;28;20379;-74
2022/02/07 07:33:07;;;;;;;18.70;2.28;;;6.60;99.90;;;;;;5010754;28;20088;-75
2022/02/07 07:35:33;;;;;;;15.05;2.38;;;6.40;99.90;;;;;;5011144;28;20030;-79
2022/02/07 07:37:58;;;;;;;24.65;2.53;;;6.30;99.90;;;;;;5011211;28;20145;-72
2022/02/07 07:40:24;;;;;;;18.27;5.72;;;6.40;99.90;;;;;;5010324;28;20103;-76
2022/02/07 07:42:55;;;;;;;15.00;2.60;;;6.40;99.90;;;;;;5011207;28;20052;-77
2022/02/07 07:45:25;;;;;;;17.55;2.42;;;6.50;99.90;;;;;;5010440;28;20375;-77
2022/02/07 07:47:57;;;;;;;15.30;2.60;;;6.60;99.90;;;;;;5011039;28;20058;-79
2022/02/07 07:50:29;;;;;;;18.52;2.95;;;6.60;99.90;;;;;;5011324;28;20041;-79
2022/02/07 08:03:18;;;;;;;20.15;3.03;;;6.80;99.90;;;;;;5011495;28;20224;-76
2022/02/07 08:05:48;;;;;;;13.93;2.47;;;6.90;99.90;;;;;;5010677;28;20034;-77
2022/02/07 08:08:36;;;;;;;19.70;4.22;;;6.90;99.90;;;;;;5009536;28;20030;-75
2022/02/07 08:11:11;;;;;;;14.93;2.05;;;6.90;99.90;;;;;;5009420;28;20117;-74
2022/02/07 08:13:40;;;;;;;16.38;2.55;;;6.90;99.90;;;;;;5010977;28;20030;-76
2022/02/07 08:16:06;;;;;;;13.00;2.15;;;6.80;99.90;;;;;;5010175;28;20030;-83
2022/02/07 08:18:32;;;;;;;18.35;2.60;;;6.80;99.90;;;;;;5012975;28;20455;-86
2022/02/07 08:20:58;;;;;;;17.05;2.17;;;6.80;99.90;;;;;;5011790;28;20113;-78
2022/02/07 08:23:23;;;;;;;13.80;1.95;;;6.80;99.90;;;;;;5011873;28;20062;-84
2022/02/07 08:25:52;;;;;;;16.42;2.50;;;6.90;99.90;;;;;;5013055;28;20456;-85
2022/02/07 08:28:17;;;;;;;14.63;2.40;;;7.00;99.90;;;;;;5012188;28;20084;-80
2022/02/07 08:30:43;;;;;;;18.35;2.63;;;7.00;99.90;;;;;;5011322;28;20067;-84
2022/02/07 08:33:15;;;;;;;18.35;2.45;;;7.00;99.90;;;;;;5013731;28;20369;-88
2022/02/07 08:35:40;;;;;;;12.27;2.38;;;7.10;99.90;;;;;;5012327;28;20034;-84
2022/02/07 08:38:06;;;;;;;21.58;2.40;;;7.00;99.90;;;;;;5011169;28;20041;-80
2022/02/07 08:40:33;;;;;;;17.02;2.45;;;7.00;99.90;;;;;;5009819;28;20034;-83
2022/02/07 08:43:00;;;;;;;24.37;2.80;;;7.10;99.90;;;;;;5012088;28;20053;-86
2022/02/07 08:45:25;;;;;;;27.00;3.17;;;7.20;99.90;;;;;;5011621;28;20112;-79
2022/02/07 08:47:56;;;;;;;25.15;2.25;;;7.00;99.90;;;;;;5010598;28;20060;-81
2022/02/07 08:50:23;;;;;;;18.13;3.00;;;7.20;99.90;;;;;;5010083;28;20077;-79
2022/02/07 08:52:50;;;;;;;25.10;3.80;;;7.20;99.90;;;;;;5011323;28;20038;-78
2022/02/07 08:55:26;;;;;;;20.77;3.10;;;7.20;99.90;;;;;;5011396;28;20055;-94
2022/02/07 08:57:57;;;;;;;25.73;3.17;;;7.20;99.90;;;;;;5012765;28;20046;-79
2022/02/07 09:00:38;;;;;;;21.63;3.25;;;7.10;99.90;;;;;;5011504;28;20014;-78
2022/02/07 09:03:17;;;;;;;15.90;2.90;;;7.00;99.90;;;;;;5010968;28;20037;-78
2022/02/07 09:05:53;;;;;;;8.50;1.40;;;6.70;99.90;;;;;;5009589;28;20120;-78
2022/02/07 09:10:46;;;;;;;12.30;2.10;;;6.20;99.90;;;;;;5013952;28;20099;-79
2022/02/07 09:13:12;;;;;;;22.15;2.33;;;6.30;99.90;;;;;;5013804;28;20056;-84
2022/02/07 09:18:07;;;;;;;16.35;2.50;;;6.50;99.90;;;;;;5014342;28;20022;-84
2022/02/07 09:20:35;;;;;;;27.52;3.20;;;6.60;99.90;;;;;;5014892;28;20026;-81
2022/02/07 09:23:02;;;;;;;;;;;6.50;99.90;;;;;;5015660;28;20026;-81
2022/02/07 09:25:28;;;;;;;16.70;2.60;;;6.50;99.90;;;;;;5013875;28;19913;-80
2022/02/07 09:27:53;;;;;;;26.00;3.10;;;6.60;99.90;;;;;;5013686;28;20125;-82
2022/02/07 09:30:19;;;;;;;16.75;3.10;;;6.70;99.70;;;;;;5015761;28;20053;-81
2022/02/07 09:32:46;;;;;;;21.85;3.33;;;6.70;99.60;;;;;;5015399;28;20408;-81
2022/02/07 09:35:12;;;;;;;12.20;2.55;;;6.50;99.50;;;;;;5013757;28;20033;-81
2022/02/07 09:37:38;;;;;;;20.27;2.58;;;6.50;99.90;;;;;;5012671;28;20053;-86
2022/02/07 09:40:05;;;;;;;21.63;2.55;;;6.70;99.90;;;;;;5014261;28;20507;-81
2022/02/07 09:42:31;;;;;;;16.23;2.58;;;6.80;99.90;;;;;;5013618;28;20054;-82
2022/02/07 09:45:07;;;;;;;16.52;2.30;;;6.80;99.90;;;;;;5015268;28;20030;-84
2022/02/07 09:47:33;;;;;;;16.17;2.55;;;7.00;99.90;;;;;;5012455;28;20118;-82
2022/02/07 09:49:59;;;;;;;16.52;3.25;;;7.00;99.90;;;;;;5013181;28;20041;-80
2022/02/07 09:52:25;;;;;;;27.92;3.53;;;7.10;99.90;;;;;;5013140;28;20038;-82
2022/02/07 09:54:50;;;;;;;22.45;3.22;;;7.20;99.90;;;;;;5013097;28;20060;-80
2022/02/07 09:57:19;;;;;;;23.98;3.58;;;7.40;99.70;;;;;;5013301;28;20097;-82
2022/02/07 09:59:49;;;;;;;25.80;3.50;;;7.50;99.30;;;;;;5012964;28;20038;-87
2022/02/07 10:02:33;;;;;;;33.10;4.47;;;7.40;99.20;;;;;;5013452;28;20514;-83
2022/02/07 10:05:03;;;;;;;25.83;3.40;;;7.50;99.00;;;;;;5011459;28;20585;-79
2022/02/07 10:07:36;;;;;;;34.90;3.97;;;7.60;98.80;;;;;;5011898;28;20041;-79
2022/02/07 10:10:29;;;;;;;23.83;4.20;;;7.70;98.60;;;;;;5012956;28;20034;-81
2022/02/07 10:13:20;;;;;;;25.25;3.60;;;7.80;98.30;;;;;;5013353;28;20034;-80
2022/02/07 10:15:55;;;;;;;34.30;4.53;;;7.90;98.10;;;;;;5012104;28;20038;-83
2022/02/07 10:18:41;;;;;;;32.25;4.35;;;8.00;97.80;;;;;;5013747;28;20050;-80
2022/02/07 10:40:31;;;;;;;31.27;3.85;;;8.60;95.50;;;;;;5012501;28;20026;-79
2022/02/07 10:45:51;;;;;;;20.20;3.88;;;8.70;95.90;;;;;;5013287;28;20026;-79
2022/02/07 10:48:31;;;;;;;21.77;3.65;;;8.50;95.50;;;;;;5012415;28;20033;-79
2022/02/07 10:51:11;;;;;;;23.10;3.47;;;8.40;95.70;;;;;;5011845;28;20026;-79
2022/02/07 10:53:43;;;;;;;26.65;3.42;;;8.80;95.50;;;;;;5011976;28;20026;-77
2022/02/07 10:56:09;;;;;;;16.83;2.40;;;9.00;94.00;;;;;;5011021;28;20030;-79
2022/02/07 10:58:36;;;;;;;9.77;2.35;;;9.50;93.40;;;;;;5012484;28;20129;-76
2022/02/07 11:01:24;;;;;;;15.52;2.05;;;10.20;92.30;;;;;;5012436;28;20109;-76
2022/02/07 11:04:03;;;;;;;14.73;2.58;;;10.90;92.00;;;;;;5011990;28;20022;-77
2022/02/07 11:06:35;;;;;;;13.55;1.88;;;11.40;88.80;;;;;;5012304;28;20133;-78
2022/02/07 11:14:22;;;;;;;17.02;2.72;;;13.60;88.40;;;;;;5014550;28;20044;-78
2022/02/07 11:25:23;;;;;;;9.07;2.72;;;13.70;80.90;;;;;;5022508;28;20037;-82
2022/02/07 11:27:56;;;;;;;14.35;2.40;;;14.40;82.80;;;;;;5011208;28;20045;-78
2022/02/07 11:30:42;;;;;;;22.73;2.70;;;13.80;78.60;;;;;;5011188;28;20029;-77
2022/02/07 11:33:39;;;;;;;12.35;2.90;;;14.30;76.50;;;;;;5013658;28;20030;-72
2022/02/07 11:36:31;;;;;;;13.55;3.20;;;15.20;78.30;;;;;;5014476;28;20046;-74
2022/02/07 11:39:02;;;;;;;15.43;3.78;;;14.60;75.30;;;;;;5013291;28;20060;-73
2022/02/07 11:41:28;;;;;;;16.70;2.72;;;14.10;75.30;;;;;;5012321;28;20130;-75
2022/02/07 11:43:54;;;;;;;11.85;3.50;;;13.70;75.80;;;;;;5014071;28;20052;-75
2022/02/07 11:46:21;;;;;;;20.55;3.25;;;12.80;77.40;;;;;;5012854;28;20047;-75
2022/02/07 11:48:48;;;;;;;15.40;3.30;;;12.90;79.00;;;;;;5013827;28;20052;-82
2022/02/07 11:51:15;;;;;;;17.75;3.10;;;12.80;78.90;;;;;;5014530;28;20135;-74
2022/02/07 11:53:54;;;;;;;17.05;3.42;;;12.40;79.60;;;;;;5012800;28;20049;-77
2022/02/07 11:56:44;;;;;;;16.20;3.33;;;12.20;80.00;;;;;;5013553;28;20057;-74
2022/02/07 11:59:55;;;;;;;22.23;3.60;;;11.40;82.30;;;;;;5014067;28;20092;-75
2022/02/07 12:02:10;;;;;;;22.45;3.60;;;11.30;83.50;;;;;;5019121;28;20036;-81
2022/02/07 12:04:44;;;;;;;28.63;3.75;;;10.60;83.40;;;;;;5015257;28;20046;-78
2022/02/07 12:07:20;;;;;;;31.00;4.10;;;10.40;85.30;;;;;;5016862;28;20185;-78
2022/02/07 12:10:12;;;;;;;24.17;4.13;;;10.40;86.40;;;;;;5014248;28;20026;-84
2022/02/07 12:12:39;;;;;;;23.17;3.42;;;9.90;87.20;;;;;;5012927;28;20045;-79
2022/02/07 12:15:06;;;;;;;18.67;3.30;;;9.40;89.30;;;;;;5011859;28;20471;-79
2022/02/07 12:17:42;;;;;;;16.17;2.35;;;9.50;90.20;;;;;;5011154;28;20030;-79
2022/02/07 12:20:12;;;;;;;10.60;1.63;;;8.50;92.90;;;;;;5011935;28;20034;-84
2022/02/07 12:23:04;;;;;;;7.70;1.23;;;7.90;94.70;;;;;;5011724;28;20034;-79
2022/02/07 12:25:42;;;;;;;6.38;0.93;;;7.20;96.50;;;;;;5027984;28;20052;-82
2022/02/07 12:28:12;;;;;;;;;;;7.40;96.70;;;;;;5012511;28;20026;-78
2022/02/07 12:30:48;;;;;;;7.30;1.20;;;7.30;97.00;;;;;;5027123;28;19975;-78
2022/02/07 12:33:17;;;;;;;11.35;1.30;;;7.50;96.70;;;;;;5012123;28;20193;-77
2022/02/07 12:35:45;;;;;;;7.95;1.02;;;7.60;96.50;;;;;;5011675;28;20044;-77
2022/02/07 12:38:12;;;;;;;;;;;7.50;96.60;;;;;;5007848;28;20100;-76
2022/02/07 12:40:38;;;;;;;6.63;2.25;;;7.40;96.80;;;;;;5000972;28;20361;-76
2022/02/07 12:43:05;;;;;;;10.60;1.55;;;7.20;97.70;;;;;;5013493;28;20364;-75
2022/02/07 12:45:32;;;;;;;7.53;1.17;;;7.30;97.80;;;;;;5016344;28;20026;-82
2022/02/07 12:48:04;;;;;;;8.10;1.35;;;7.40;97.70;;;;;;5015846;28;20452;-82
2022/02/07 12:50:30;;;;;;;10.20;1.83;;;7.50;97.60;;;;;;5015332;28;20121;-79
2022/02/07 12:52:57;;;;;;;13.20;1.58;;;7.70;97.70;;;;;;5015422;28;20474;-76
2022/02/07 12:55:22;;;;;;;11.95;1.63;;;7.90;97.50;;;;;;5015131;28;20040;-78
2022/02/07 12:57:48;;;;;;;7.35;1.73;;;7.80;96.70;;;;;;5030129;28;20336;-77
2022/02/07 13:00:17;;;;;;;7.70;1.92;;;8.20;97.30;;;;;;5014950;28;20029;-77
2022/02/07 13:02:45;;;;;;;15.35;2.30;;;8.40;96.90;;;;;;5014643;28;20026;-79
2022/02/07 13:05:17;;;;;;;12.00;1.98;;;8.70;96.40;;;;;;5013333;28;20608;-78
2022/02/07 13:07:47;;;;;;;15.82;2.33;;;8.80;96.30;;;;;;5029815;28;20464;-77
2022/02/07 13:10:18;;;;;;;25.45;4.50;;;8.90;96.30;;;;;;5015696;28;20383;-79
2022/02/07 13:15:29;;;;;;;30.02;7.95;;;9.10;96.00;;;;;;5015830;28;20467;-81
2022/02/07 13:18:01;;;;;;;15.93;5.18;;;9.30;96.30;;;;;;5015745;28;20030;-81
2022/02/07 13:20:27;;;;;;;16.70;4.03;;;9.30;95.80;;;;;;5014966;28;20045;-77
2022/02/07 13:23:10;;;;;;;15.57;2.63;;;9.40;95.60;;;;;;5013937;28;20034;-78
2022/02/07 13:25:43;;;;;;;14.75;2.88;;;9.40;95.50;;;;;;5013408;28;20404;-79
2022/02/07 13:28:13;;;;;;;18.92;2.85;;;9.50;95.50;;;;;;5014825;28;20030;-79
2022/02/07 13:30:43;;;;;;;15.73;2.90;;;9.40;95.40;;;;;;5015334;28;20149;-78
2022/02/07 13:33:09;;;;;;;22.90;4.05;;;9.50;95.50;;;;;;5015747;28;20046;-82
2022/02/07 13:35:43;;;;;;;20.25;3.50;;;9.50;95.60;;;;;;5014336;28;20674;-80
2022/02/07 13:38:10;;;;;;;14.50;2.88;;;9.30;95.50;;;;;;5013194;28;20022;-79
2022/02/07 13:40:44;;;;;;;17.07;3.10;;;9.10;95.80;;;;;;5013548;28;20118;-79
2022/02/07 13:43:21;;;;;;;23.58;2.90;;;8.80;95.60;;;;;;5013015;28;20306;-79
2022/02/07 13:45:57;;;;;;;14.18;2.33;;;8.60;95.70;;;;;;5012048;28;20345;-79
2022/02/07 13:48:24;;;;;;;13.05;1.90;;;8.40;95.90;;;;;;5013462;28;20088;-78
2022/02/07 13:50:54;;;;;;;26.52;2.85;;;8.40;96.00;;;;;;5013072;28;20036;-80
2022/02/07 13:53:22;;;;;;;20.38;2.53;;;8.40;96.10;;;;;;5012648;28;20125;-80
2022/02/07 13:55:51;;;;;;;14.60;2.97;;;8.60;96.30;;;;;;5012053;28;20030;-82
2022/02/07 13:58:18;;;;;;;18.70;2.63;;;8.70;96.20;;;;;;5013199;28;20030;-79
2022/02/07 14:00:47;;;;;;;17.48;2.60;;;8.50;96.10;;;;;;5012728;28;20037;-81
2022/02/07 14:03:22;;;;;;;17.30;2.50;;;8.60;96.60;;;;;;5018358;28;20029;-83
2022/02/07 14:05:56;;;;;;;13.98;2.78;;;8.80;96.60;;;;;;5028320;28;20519;-80
2022/02/07 14:08:54;;;;;;;20.58;3.13;;;8.80;96.50;;;;;;5012515;28;20050;-78
2022/02/07 14:11:24;;;;;;;16.55;3.10;;;8.70;96.80;;;;;;5012094;28;20036;-82
2022/02/07 14:13:51;;;;;;;17.27;2.15;;;8.60;96.70;;;;;;5012761;28;20062;-79
2022/02/07 14:16:23;;;;;;;14.23;2.53;;;8.70;96.90;;;;;;5012814;28;20408;-81
2022/02/07 14:18:50;;;;;;;16.88;2.80;;;8.70;96.90;;;;;;5012819;28;20409;-80
2022/02/07 14:21:18;;;;;;;17.95;3.00;;;8.50;97.10;;;;;;5018077;28;20025;-80
2022/02/07 14:23:45;;;;;;;13.18;2.38;;;8.50;97.20;;;;;;5016164;28;20026;-79
2022/02/07 14:26:15;;;;;;;21.95;2.33;;;8.50;97.30;;;;;;5013803;28;20022;-76
2022/02/07 14:28:42;;;;;;;11.75;1.98;;;8.30;97.50;;;;;;5013394;28;20033;-75
2022/02/07 14:31:11;;;;;;;12.95;2.28;;;8.30;97.40;;;;;;5014794;28;20069;-80
2022/02/07 14:33:40;;;;;;;23.60;2.63;;;8.20;97.60;;;;;;5016362;28;20032;-81
2022/02/07 14:36:07;;;;;;;18.60;2.78;;;8.20;97.40;;;;;;5015985;28;20026;-83
2022/02/07 14:38:33;;;;;;;13.27;2.17;;;8.30;96.80;;;;;;5014811;28;20463;-79
2022/02/07 14:40:59;;;;;;;11.05;2.78;;;8.00;96.30;;;;;;5014008;28;20026;-80
2022/02/07 14:43:29;;;;;;;8.52;1.67;;;7.80;96.20;;;;;;5014129;28;20057;-81
2022/02/07 14:46:06;;;;;;;6.13;1.45;;;7.70;96.10;;;;;;5013770;28;20042;-80
2022/02/07 14:48:37;;;;;;;9.00;1.60;;;7.70;96.20;;;;;;5013727;28;20025;-79
2022/02/07 14:51:06;;;;;;;9.80;1.33;;;7.80;96.00;;;;;;5013907;28;20033;-79
2022/02/07 14:53:37;;;;;;;7.65;1.13;;;7.60;96.20;;;;;;5013370;28;20034;-85
2022/02/07 14:56:03;;;;;;;6.70;1.42;;;7.60;96.30;;;;;;5012089;28;20040;-83
2022/02/07 14:58:29;;;;;;;9.80;1.95;;;7.60;96.30;;;;;;5011925;28;20104;-83
2022/02/07 15:00:55;;;;;;;9.98;1.67;;;7.60;96.20;;;;;;5011889;28;20030;-75
2022/02/07 15:03:23;;;;;;;13.75;1.50;;;7.50;96.20;;;;;;5011274;28;20168;-79
2022/02/07 15:05:53;;;;;;;15.35;1.63;;;7.50;96.10;;;;;;5011069;28;20296;-81
2022/02/07 15:08:19;;;;;;;14.07;3.42;;;7.60;96.10;;;;;;5011771;28;20577;-80
2022/02/07 15:10:45;;;;;;;16.20;2.75;;;7.70;96.00;;;;;;5011989;28;20033;-81
2022/02/07 15:13:11;;;;;;;11.98;2.40;;;7.70;95.70;;;;;;5011644;28;20079;-77
2022/02/07 15:15:36;;;;;;;21.05;2.53;;;7.70;95.90;;;;;;5010271;28;20121;-78
2022/02/07 15:18:06;;;;;;;15.23;2.00;;;7.70;96.10;;;;;;5012121;28;20104;-76
2022/02/07 15:20:33;;;;;;;11.70;1.90;;;7.70;96.60;;;;;;5011347;28;20541;-76
2022/02/07 15:22:59;;;;;;;10.63;1.27;;;7.60;96.50;;;;;;5010361;28;20107;-75
2022/02/07 15:25:30;;;;;;;9.38;1.40;;;7.60;96.70;;;;;;5011396;28;20070;-84